createdAt,value
2019-01-11T00:00:50.103Z,67.43
2019-01-11T00:01:50.146Z,68.10
2019-01-11T00:02:50.118Z,67.43
2019-01-11T00:03:50.144Z,67.43
2019-01-11T00:04:50.147Z,67.33
2019-01-11T00:05:50.125Z,67.43
2019-01-11T00:06:50.123Z,68.10
2019-01-11T00:07:50.143Z,67.24
2019-01-11T00:08:50.138Z,67.90
2019-01-11T00:09:50.127Z,67.81
2019-01-11T00:10:50.127Z,67.71
2019-01-11T00:11:50.179Z,68.00
2019-01-11T00:12:50.156Z,68.00
2019-01-11T00:13:50.176Z,67.90
2019-01-11T00:14:50.142Z,67.71
2019-01-11T00:15:50.147Z,68.29
2019-01-11T00:16:50.143Z,67.90
2019-01-11T00:17:50.207Z,67.90
2019-01-11T00:18:50.219Z,67.81
2019-01-11T00:19:50.201Z,68.19
2019-01-11T00:20:50.222Z,68.00
2019-01-11T00:21:50.173Z,68.00
2019-01-11T00:22:50.211Z,68.29
2019-01-11T00:23:50.207Z,68.29
2019-01-11T00:24:50.188Z,67.71
2019-01-11T00:25:50.157Z,68.29
2019-01-11T00:26:50.177Z,68.19
2019-01-11T00:27:50.212Z,67.81
2019-01-11T00:28:50.179Z,68.10
2019-01-11T00:29:50.243Z,67.33
2019-01-11T00:30:50.191Z,68.10
2019-01-11T00:31:50.244Z,67.90
2019-01-11T00:32:50.203Z,67.81
2019-01-11T00:33:50.211Z,68.10
2019-01-11T00:34:50.197Z,68.10
2019-01-11T00:35:50.652Z,68.00
2019-01-11T00:36:50.245Z,67.81
2019-01-11T00:37:50.274Z,67.90
2019-01-11T00:38:50.226Z,67.71
2019-01-11T00:39:50.199Z,67.71
2019-01-11T00:40:50.219Z,67.71
2019-01-11T00:41:50.390Z,68.19
2019-01-11T00:42:50.217Z,68.00
2019-01-11T00:43:50.230Z,68.38
2019-01-11T00:44:50.241Z,67.71
2019-01-11T00:45:50.419Z,67.90
2019-01-11T00:46:50.262Z,67.43
2019-01-11T00:47:50.247Z,67.90
2019-01-11T00:48:50.248Z,68.19
2019-01-11T00:49:50.264Z,68.19
2019-01-11T00:50:50.272Z,68.29
2019-01-11T00:51:50.307Z,68.00
2019-01-11T00:52:50.248Z,68.00
2019-01-11T00:53:50.253Z,67.81
2019-01-11T00:54:50.262Z,67.33
2019-01-11T00:55:50.301Z,67.52
2019-01-11T00:56:50.274Z,68.10
2019-01-11T00:57:50.286Z,68.00
2019-01-11T00:58:50.254Z,67.71
2019-01-11T00:59:50.253Z,68.29
2019-01-11T01:00:50.253Z,68.10
2019-01-11T01:01:50.344Z,67.81
2019-01-11T01:02:50.257Z,67.52
2019-01-11T01:03:50.275Z,68.10
2019-01-11T01:04:50.315Z,67.90
2019-01-11T01:05:50.270Z,67.90
2019-01-11T01:06:50.284Z,67.81
2019-01-11T01:07:50.344Z,67.71
2019-01-11T01:08:50.303Z,68.10
2019-01-11T01:09:50.296Z,68.10
2019-01-11T01:10:50.327Z,68.10
2019-01-11T01:11:50.310Z,67.71
2019-01-11T01:12:50.287Z,67.71
2019-01-11T01:13:50.311Z,68.19
2019-01-11T01:14:50.320Z,68.19
2019-01-11T01:15:50.350Z,68.00
2019-01-11T01:16:51.210Z,68.19
2019-01-11T01:17:50.308Z,68.29
2019-01-11T01:18:50.338Z,68.29
2019-01-11T01:19:50.309Z,68.00
2019-01-11T01:20:50.310Z,67.90
2019-01-11T01:21:50.340Z,68.10
2019-01-11T01:22:50.328Z,67.90
2019-01-11T01:23:50.327Z,68.10
2019-01-11T01:24:50.340Z,68.10
2019-01-11T01:25:50.346Z,68.19
2019-01-11T01:26:51.177Z,68.38
2019-01-11T01:27:50.355Z,68.10
2019-01-11T01:28:50.338Z,68.66
2019-01-11T01:29:50.393Z,68.85
2019-01-11T01:30:50.361Z,68.19
2019-01-11T01:31:50.351Z,68.00
2019-01-11T01:32:50.334Z,68.10
2019-01-11T01:33:50.348Z,67.90
2019-01-11T01:34:50.407Z,68.00
2019-01-11T01:35:50.334Z,68.29
2019-01-11T01:36:50.407Z,69.04
2019-01-11T01:37:50.349Z,68.85
2019-01-11T01:38:50.354Z,69.04
2019-01-11T01:39:50.357Z,69.33
2019-01-11T01:40:50.435Z,68.85
2019-01-11T01:41:50.371Z,69.04
2019-01-11T01:42:50.379Z,68.95
2019-01-11T01:43:50.380Z,69.04
2019-01-11T01:44:50.379Z,69.23
2019-01-11T01:45:50.363Z,69.23
2019-01-11T01:46:50.401Z,68.76
2019-01-11T01:47:50.383Z,68.85
2019-01-11T01:48:50.400Z,69.13
2019-01-11T01:49:50.389Z,69.13
2019-01-11T01:50:50.404Z,69.13
2019-01-11T01:51:50.459Z,68.85
2019-01-11T01:52:50.394Z,69.90
2019-01-11T01:53:50.402Z,69.80
2019-01-11T01:54:51.083Z,69.52
2019-01-11T01:55:50.400Z,69.52
2019-01-11T01:56:50.447Z,69.52
2019-01-11T01:57:50.432Z,69.71
2019-01-11T01:58:50.407Z,69.71
2019-01-11T01:59:50.426Z,69.99
2019-01-11T02:00:50.422Z,69.99
2019-01-11T02:01:50.407Z,70.18
2019-01-11T02:02:50.435Z,69.99
2019-01-11T02:03:50.438Z,70.47
2019-01-11T02:04:50.429Z,70.28
2019-01-11T02:05:50.425Z,69.99
2019-01-11T02:06:50.414Z,69.80
2019-01-11T02:07:50.463Z,70.56
2019-01-11T02:08:50.429Z,70.18
2019-01-11T02:09:50.445Z,70.18
2019-01-11T02:10:50.442Z,69.90
2019-01-11T02:11:50.468Z,70.47
2019-01-11T02:12:50.461Z,70.56
2019-01-11T02:13:50.452Z,70.47
2019-01-11T02:14:50.450Z,70.56
2019-01-11T02:15:50.440Z,71.09
2019-01-11T02:16:50.473Z,70.37
2019-01-11T02:17:50.474Z,71.13
2019-01-11T02:18:50.477Z,70.65
2019-01-11T02:19:50.451Z,70.28
2019-01-11T02:20:50.466Z,70.56
2019-01-11T02:21:50.467Z,70.56
2019-01-11T02:22:50.505Z,71.13
2019-01-11T02:23:50.474Z,70.28
2019-01-11T02:24:50.473Z,70.47
2019-01-11T02:25:50.491Z,70.56
2019-01-11T02:26:50.492Z,71.22
2019-01-11T02:27:50.504Z,70.75
2019-01-11T02:28:50.472Z,70.84
2019-01-11T02:29:50.470Z,70.94
2019-01-11T02:30:50.476Z,71.03
2019-01-11T02:31:50.483Z,70.75
2019-01-11T02:32:53.046Z,70.65
2019-01-11T02:33:50.501Z,70.84
2019-01-11T02:34:50.510Z,70.37
2019-01-11T02:35:50.555Z,70.94
2019-01-11T02:36:50.516Z,71.03
2019-01-11T02:37:50.544Z,70.94
2019-01-11T02:38:50.505Z,71.22
2019-01-11T02:39:50.577Z,71.19
2019-01-11T02:40:50.507Z,71.22
2019-01-11T02:41:50.511Z,71.32
2019-01-11T02:42:50.565Z,71.22
2019-01-11T02:43:50.514Z,71.60
2019-01-11T02:44:50.544Z,71.13
2019-01-11T02:45:50.533Z,71.51
2019-01-11T02:46:50.551Z,71.60
2019-01-11T02:47:50.558Z,71.41
2019-01-11T02:48:50.571Z,71.80
2019-01-11T02:49:50.552Z,71.22
2019-01-11T02:50:50.627Z,71.60
2019-01-11T02:51:50.579Z,71.41
2019-01-11T02:52:50.566Z,71.13
2019-01-11T02:53:50.576Z,71.60
2019-01-11T02:54:50.547Z,71.60
2019-01-11T02:55:50.586Z,71.32
2019-01-11T02:56:50.558Z,71.98
2019-01-11T02:57:50.569Z,71.70
2019-01-11T02:58:50.610Z,71.60
2019-01-11T02:59:50.570Z,71.89
2019-01-11T03:00:50.625Z,71.51
2019-01-11T03:01:50.586Z,71.98
2019-01-11T03:02:50.557Z,71.32
2019-01-11T03:03:50.627Z,72.27
2019-01-11T03:04:50.598Z,71.80
2019-01-11T03:05:50.581Z,71.60
2019-01-11T03:06:50.571Z,72.17
2019-01-11T03:07:50.597Z,71.89
2019-01-11T03:08:50.625Z,72.08
2019-01-11T03:09:50.591Z,72.08
2019-01-11T03:10:51.641Z,71.98
2019-01-11T03:11:50.611Z,71.98
2019-01-11T03:12:50.609Z,72.08
2019-01-11T03:13:50.609Z,71.70
2019-01-11T03:14:50.628Z,71.98
2019-01-11T03:15:50.635Z,71.60
2019-01-11T03:16:50.601Z,71.89
2019-01-11T03:17:50.640Z,71.60
2019-01-11T03:18:50.627Z,72.55
2019-01-11T03:19:50.605Z,71.98
2019-01-11T03:20:50.635Z,72.08
2019-01-11T03:21:50.682Z,72.08
2019-01-11T03:22:50.627Z,72.08
2019-01-11T03:23:50.634Z,71.70
2019-01-11T03:24:50.652Z,72.17
2019-01-11T03:25:50.665Z,72.27
2019-01-11T03:26:50.624Z,71.98
2019-01-11T03:27:50.634Z,71.80
2019-01-11T03:28:50.670Z,71.98
2019-01-11T03:29:50.630Z,71.70
2019-01-11T03:30:50.635Z,71.80
2019-01-11T03:31:50.675Z,71.51
2019-01-11T03:32:50.652Z,72.17
2019-01-11T03:33:50.661Z,72.27
2019-01-11T03:34:50.739Z,71.98
2019-01-11T03:35:50.678Z,72.36
2019-01-11T03:36:50.680Z,71.89
2019-01-11T03:37:50.653Z,71.98
2019-01-11T03:38:50.674Z,71.98
2019-01-11T03:39:50.673Z,72.17
2019-01-11T03:40:50.695Z,72.08
2019-01-11T03:41:50.674Z,72.36
2019-01-11T03:42:50.703Z,72.74
2019-01-11T03:43:50.668Z,72.64
2019-01-11T03:44:50.665Z,72.45
2019-01-11T03:45:50.703Z,72.55
2019-01-11T03:46:50.690Z,72.27
2019-01-11T03:47:50.699Z,72.36
2019-01-11T03:48:50.672Z,72.36
2019-01-11T03:49:54.808Z,72.55
2019-01-11T03:50:50.723Z,72.55
2019-01-11T03:51:50.703Z,72.45
2019-01-11T03:52:50.720Z,72.45
2019-01-11T03:53:50.709Z,72.55
2019-01-11T03:54:50.712Z,72.84
2019-01-11T03:55:50.713Z,72.84
2019-01-11T03:56:50.721Z,72.84
2019-01-11T03:57:50.721Z,73.03
2019-01-11T03:58:50.704Z,72.45
2019-01-11T03:59:50.714Z,72.74
2019-01-11T04:00:50.722Z,72.55
2019-01-11T04:01:50.711Z,72.74
2019-01-11T04:02:50.746Z,73.03
2019-01-11T04:03:50.757Z,72.93
2019-01-11T04:04:50.720Z,72.84
2019-01-11T04:05:50.740Z,72.93
2019-01-11T04:06:50.755Z,72.84
2019-01-11T04:07:50.738Z,72.93
2019-01-11T04:08:50.793Z,72.93
2019-01-11T04:09:50.728Z,73.03
2019-01-11T04:10:51.970Z,73.41
2019-01-11T04:11:50.743Z,72.74
2019-01-11T04:12:50.744Z,73.22
2019-01-11T04:13:50.759Z,73.22
2019-01-11T04:14:50.763Z,72.93
2019-01-11T04:15:50.750Z,72.74
2019-01-11T04:16:50.759Z,72.74
2019-01-11T04:17:50.774Z,72.93
2019-01-11T04:18:50.775Z,72.45
2019-01-11T04:19:50.792Z,73.12
2019-01-11T04:20:50.780Z,73.31
2019-01-11T04:21:50.795Z,72.45
2019-01-11T04:22:50.771Z,72.84
2019-01-11T04:23:50.771Z,73.03
2019-01-11T04:24:50.818Z,73.03
2019-01-11T04:25:50.819Z,73.69
2019-01-11T04:26:50.797Z,72.74
2019-01-11T04:27:50.797Z,72.64
2019-01-11T04:28:50.800Z,72.74
2019-01-11T04:29:50.794Z,72.74
2019-01-11T04:30:50.813Z,73.12
2019-01-11T04:31:50.826Z,72.64
2019-01-11T04:32:50.790Z,72.27
2019-01-11T04:33:50.802Z,72.45
2019-01-11T04:34:50.792Z,72.74
2019-01-11T04:35:50.877Z,72.55
2019-01-11T04:36:50.807Z,73.03
2019-01-11T04:37:50.806Z,73.12
2019-01-11T04:38:50.837Z,72.64
2019-01-11T04:39:50.815Z,72.64
2019-01-11T04:40:50.825Z,72.74
2019-01-11T04:41:50.832Z,72.74
2019-01-11T04:42:50.824Z,72.84
2019-01-11T04:43:50.811Z,72.84
2019-01-11T04:44:50.826Z,72.45
2019-01-11T04:45:50.859Z,72.93
2019-01-11T04:46:50.852Z,72.93
2019-01-11T04:47:50.850Z,73.03
2019-01-11T04:48:50.826Z,73.22
2019-01-11T04:49:50.857Z,72.93
2019-01-11T04:50:50.855Z,72.93
2019-01-11T04:51:50.904Z,73.41
2019-01-11T04:52:50.854Z,72.93
2019-01-11T04:53:50.861Z,72.55
2019-01-11T04:54:50.868Z,72.93
2019-01-11T04:55:50.873Z,72.84
2019-01-11T04:56:50.875Z,72.64
2019-01-11T04:57:50.882Z,73.31
2019-01-11T04:58:50.884Z,73.31
2019-01-11T04:59:50.881Z,73.22
2019-01-11T05:00:50.868Z,73.41
2019-01-11T05:01:50.879Z,73.03
2019-01-11T05:02:50.893Z,72.84
2019-01-11T05:03:50.877Z,72.55
2019-01-11T05:04:50.906Z,73.22
2019-01-11T05:05:50.884Z,73.69
2019-01-11T05:06:50.897Z,73.41
2019-01-11T05:07:50.915Z,73.79
2019-01-11T05:08:50.890Z,73.69
2019-01-11T05:09:50.896Z,73.50
2019-01-11T05:10:50.889Z,73.69
2019-01-11T05:11:50.912Z,73.88
2019-01-11T05:12:50.944Z,73.79
2019-01-11T05:13:50.923Z,73.88
2019-01-11T05:14:50.906Z,73.79
2019-01-11T05:15:50.911Z,73.88
2019-01-11T05:16:50.917Z,74.07
2019-01-11T05:17:50.930Z,74.07
2019-01-11T05:18:51.228Z,73.60
2019-01-11T05:19:50.961Z,74.45
2019-01-11T05:20:51.833Z,74.54
2019-01-11T05:21:50.917Z,74.26
2019-01-11T05:22:50.916Z,74.73
2019-01-11T05:23:50.955Z,74.73
2019-01-11T05:24:50.937Z,74.83
2019-01-11T05:25:50.936Z,75.11
2019-01-11T05:26:50.934Z,74.83
2019-01-11T05:27:50.961Z,75.11
2019-01-11T05:28:50.969Z,74.92
2019-01-11T05:29:51.015Z,75.21
2019-01-11T05:30:50.973Z,75.40
2019-01-11T05:31:50.972Z,75.21
2019-01-11T05:32:50.959Z,75.31
2019-01-11T05:33:50.954Z,75.68
2019-01-11T05:34:50.974Z,75.87
2019-01-11T05:35:50.973Z,76.25
2019-01-11T05:36:50.966Z,75.96
2019-01-11T05:37:50.989Z,75.87
2019-01-11T05:38:50.972Z,76.15
2019-01-11T05:39:51.015Z,76.15
2019-01-11T05:40:51.003Z,76.15
2019-01-11T05:41:51.006Z,76.73
2019-01-11T05:42:50.971Z,76.54
2019-01-11T05:43:50.991Z,76.92
2019-01-11T05:44:50.997Z,76.82
2019-01-11T05:45:51.104Z,76.54
2019-01-11T05:46:52.718Z,76.92
2019-01-11T05:47:50.989Z,77.48
2019-01-11T05:48:51.049Z,77.48
2019-01-11T05:49:50.998Z,77.58
2019-01-11T05:50:51.003Z,77.67
2019-01-11T05:51:51.021Z,78.11
2019-01-11T05:52:51.188Z,78.11
2019-01-11T05:53:51.027Z,78.39
2019-01-11T05:54:51.010Z,78.43
2019-01-11T05:55:51.028Z,78.20
2019-01-11T05:56:51.046Z,78.49
2019-01-11T05:57:54.806Z,78.67
2019-01-11T05:58:51.015Z,78.67
2019-01-11T05:59:51.030Z,78.30
2019-01-11T06:00:51.016Z,78.77
2019-01-11T06:01:51.024Z,78.67
2019-01-11T06:02:51.050Z,79.15
2019-01-11T06:03:51.050Z,79.06
2019-01-11T06:04:51.052Z,79.25
2019-01-11T06:05:51.039Z,79.34
2019-01-11T06:06:51.042Z,79.44
2019-01-11T06:07:51.042Z,79.25
2019-01-11T06:08:51.070Z,79.15
2019-01-11T06:09:51.062Z,79.25
2019-01-11T06:10:51.062Z,79.06
2019-01-11T06:11:51.054Z,79.06
2019-01-11T06:12:51.094Z,79.25
2019-01-11T06:13:51.072Z,79.06
2019-01-11T06:14:51.059Z,79.10
2019-01-11T06:15:51.091Z,79.28
2019-01-11T06:16:51.087Z,78.91
2019-01-11T06:17:51.067Z,78.62
2019-01-11T06:18:51.091Z,79.19
2019-01-11T06:19:51.068Z,79.19
2019-01-11T06:20:51.149Z,79.19
2019-01-11T06:21:51.077Z,79.28
2019-01-11T06:22:51.062Z,79.00
2019-01-11T06:23:51.104Z,79.00
2019-01-11T06:24:51.113Z,79.28
2019-01-11T06:25:51.076Z,79.10
2019-01-11T06:26:51.116Z,79.28
2019-01-11T06:27:51.089Z,79.10
2019-01-11T06:28:51.084Z,79.28
2019-01-11T06:29:51.235Z,79.38
2019-01-11T06:30:51.126Z,79.00
2019-01-11T06:31:51.112Z,79.28
2019-01-11T06:32:51.114Z,79.10
2019-01-11T06:33:51.101Z,79.10
2019-01-11T06:34:51.126Z,79.10
2019-01-11T06:35:51.100Z,79.10
2019-01-11T06:36:51.130Z,79.38
2019-01-11T06:37:51.137Z,79.38
2019-01-11T06:38:51.110Z,79.19
2019-01-11T06:39:52.017Z,79.19
2019-01-11T06:40:51.137Z,79.10
2019-01-11T06:41:51.224Z,79.10
2019-01-11T06:42:51.123Z,79.28
2019-01-11T06:43:51.116Z,79.28
2019-01-11T06:44:51.152Z,79.10
2019-01-11T06:45:51.149Z,79.47
2019-01-11T06:46:51.146Z,79.19
2019-01-11T06:47:51.175Z,78.62
2019-01-11T06:48:51.129Z,78.43
2019-01-11T06:49:51.132Z,78.62
2019-01-11T06:50:51.144Z,78.62
2019-01-11T06:51:51.182Z,78.53
2019-01-11T06:52:51.152Z,79.47
2019-01-11T06:53:51.151Z,79.19
2019-01-11T06:54:51.162Z,78.53
2019-01-11T06:55:51.242Z,78.62
2019-01-11T06:56:51.183Z,78.53
2019-01-11T06:57:51.166Z,79.47
2019-01-11T06:58:51.198Z,79.28
2019-01-11T06:59:51.199Z,79.19
2019-01-11T07:00:51.272Z,78.81
2019-01-11T07:01:51.170Z,79.38
2019-01-11T07:02:51.206Z,79.76
2019-01-11T07:03:51.169Z,79.28
2019-01-11T07:04:51.187Z,79.38
2019-01-11T07:05:51.228Z,78.43
2019-01-11T07:06:51.248Z,78.53
2019-01-11T07:07:51.242Z,78.62
2019-01-11T07:08:51.196Z,78.81
2019-01-11T07:09:51.181Z,78.72
2019-01-11T07:10:51.216Z,78.72
2019-01-11T07:11:51.202Z,78.62
2019-01-11T07:12:51.225Z,78.62
2019-01-11T07:13:51.202Z,78.43
2019-01-11T07:14:51.202Z,78.53
2019-01-11T07:15:51.233Z,78.53
2019-01-11T07:16:51.209Z,79.47
2019-01-11T07:17:51.205Z,78.62
2019-01-11T07:18:51.239Z,79.10
2019-01-11T07:19:51.255Z,79.10
2019-01-11T07:20:51.229Z,79.47
2019-01-11T07:21:51.228Z,79.28
2019-01-11T07:22:51.238Z,79.00
2019-01-11T07:23:51.365Z,79.47
2019-01-11T07:24:51.245Z,79.57
2019-01-11T07:25:51.238Z,79.10
2019-01-11T07:26:51.272Z,79.38
2019-01-11T07:27:51.236Z,79.38
2019-01-11T07:28:51.243Z,79.38
2019-01-11T07:29:51.269Z,79.38
2019-01-11T07:30:51.274Z,80.14
2019-01-11T07:31:51.247Z,79.38
2019-01-11T07:32:51.244Z,79.38
2019-01-11T07:33:51.291Z,79.57
2019-01-11T07:34:51.319Z,79.47
2019-01-11T07:35:51.255Z,79.10
2019-01-11T07:36:51.287Z,79.28
2019-01-11T07:37:51.277Z,79.47
2019-01-11T07:38:51.269Z,79.47
2019-01-11T07:39:51.272Z,80.14
2019-01-11T07:40:51.317Z,79.57
2019-01-11T07:41:51.316Z,79.19
2019-01-11T07:42:51.283Z,79.19
2019-01-11T07:43:51.311Z,79.95
2019-01-11T07:44:51.287Z,79.95
2019-01-11T07:45:51.297Z,79.66
2019-01-11T07:46:52.077Z,80.43
2019-01-11T07:47:51.377Z,80.33
2019-01-11T07:48:51.307Z,80.43
2019-01-11T07:49:51.282Z,80.67
2019-01-11T07:50:51.303Z,80.43
2019-01-11T07:51:51.299Z,79.76
2019-01-11T07:52:51.350Z,79.66
2019-01-11T07:53:51.307Z,80.52
2019-01-11T07:54:51.320Z,80.33
2019-01-11T07:55:51.315Z,80.24
2019-01-11T07:56:51.349Z,80.24
2019-01-11T07:57:51.315Z,80.52
2019-01-11T07:58:51.347Z,80.71
2019-01-11T07:59:51.321Z,80.80
2019-01-11T08:00:51.318Z,81.27
2019-01-11T08:01:51.346Z,80.80
2019-01-11T08:02:51.319Z,80.80
2019-01-11T08:03:51.411Z,80.52
2019-01-11T08:04:51.328Z,81.27
2019-01-11T08:05:51.357Z,80.71
2019-01-11T08:06:51.333Z,80.24
2019-01-11T08:07:51.348Z,80.43
2019-01-11T08:08:51.368Z,80.04
2019-01-11T08:09:51.402Z,80.80
2019-01-11T08:10:51.367Z,80.62
2019-01-11T08:11:51.357Z,80.80
2019-01-11T08:12:51.344Z,81.37
2019-01-11T08:13:51.346Z,80.71
2019-01-11T08:14:51.357Z,80.80
2019-01-11T08:15:51.878Z,80.71
2019-01-11T08:16:51.352Z,80.33
2019-01-11T08:17:51.364Z,80.90
2019-01-11T08:18:51.357Z,80.14
2019-01-11T08:19:51.380Z,80.62
2019-01-11T08:20:56.127Z,80.43
2019-01-11T08:21:51.613Z,80.90
2019-01-11T08:22:51.406Z,80.52
2019-01-11T08:23:51.398Z,80.24
2019-01-11T08:24:51.377Z,80.33
2019-01-11T08:25:51.463Z,80.14
2019-01-11T08:26:51.408Z,80.71
2019-01-11T08:27:51.385Z,80.33
2019-01-11T08:28:51.409Z,80.52
2019-01-11T08:29:51.417Z,80.43
2019-01-11T08:30:51.393Z,79.85
2019-01-11T08:31:51.412Z,79.95
2019-01-11T08:32:51.434Z,80.52
2019-01-11T08:33:51.437Z,80.33
2019-01-11T08:34:52.567Z,80.24
2019-01-11T08:35:51.749Z,80.52
2019-01-11T08:36:51.438Z,80.43
2019-01-11T08:37:51.462Z,80.33
2019-01-11T08:38:51.419Z,80.04
2019-01-11T08:39:51.422Z,80.62
2019-01-11T08:40:51.416Z,80.90
2019-01-11T08:41:51.419Z,80.43
2019-01-11T08:42:51.428Z,79.85
2019-01-11T08:43:51.463Z,80.14
2019-01-11T08:44:51.449Z,79.76
2019-01-11T08:45:51.446Z,79.95
2019-01-11T08:46:51.441Z,79.57
2019-01-11T08:47:51.447Z,79.76
2019-01-11T08:48:51.460Z,80.04
2019-01-11T08:49:51.495Z,80.04
2019-01-11T08:50:51.474Z,80.62
2019-01-11T08:51:51.484Z,80.62
2019-01-11T08:52:51.852Z,79.95
2019-01-11T08:53:51.483Z,79.95
2019-01-11T08:54:51.450Z,79.57
2019-01-11T08:55:51.457Z,79.47
2019-01-11T08:56:51.473Z,79.66
2019-01-11T08:57:51.559Z,79.33
2019-01-11T08:58:51.468Z,79.57
2019-01-11T08:59:51.507Z,79.23
2019-01-11T09:00:51.482Z,79.52
2019-01-11T09:01:51.631Z,79.52
2019-01-11T09:02:51.491Z,79.61
2019-01-11T09:03:51.486Z,79.42
2019-01-11T09:04:51.626Z,79.42
2019-01-11T09:05:51.661Z,79.80
2019-01-11T09:06:51.558Z,79.33
2019-01-11T09:07:51.491Z,79.52
2019-01-11T09:08:51.506Z,79.80
2019-01-11T09:09:51.502Z,79.52
2019-01-11T09:10:51.567Z,79.33
2019-01-11T09:11:51.536Z,79.52
2019-01-11T09:12:51.597Z,79.61
2019-01-11T09:13:51.522Z,79.61
2019-01-11T09:14:51.531Z,80.18
2019-01-11T09:15:51.556Z,79.71
2019-01-11T09:16:51.551Z,79.42
2019-01-11T09:17:51.531Z,79.71
2019-01-11T09:18:51.560Z,79.99
2019-01-11T09:19:51.546Z,80.18
2019-01-11T09:20:51.635Z,79.71
2019-01-11T09:21:51.823Z,79.52
2019-01-11T09:22:51.541Z,80.08
2019-01-11T09:23:51.557Z,79.80
2019-01-11T09:24:51.680Z,80.65
2019-01-11T09:25:51.574Z,80.37
2019-01-11T09:26:51.621Z,80.37
2019-01-11T09:27:51.566Z,79.99
2019-01-11T09:28:51.551Z,80.46
2019-01-11T09:29:51.583Z,80.65
2019-01-11T09:30:51.584Z,79.90
2019-01-11T09:31:51.730Z,80.27
2019-01-11T09:32:51.631Z,80.18
2019-01-11T09:33:51.576Z,80.56
2019-01-11T09:34:51.583Z,80.56
2019-01-11T09:35:51.636Z,80.46
2019-01-11T09:36:51.602Z,80.27
2019-01-11T09:37:51.652Z,80.46
2019-01-11T09:38:51.590Z,80.37
2019-01-11T09:39:51.612Z,80.27
2019-01-11T09:40:51.621Z,80.75
2019-01-11T09:41:51.631Z,80.94
2019-01-11T09:42:51.600Z,80.46
2019-01-11T09:43:51.651Z,81.04
2019-01-11T09:44:51.599Z,80.94
2019-01-11T09:45:51.613Z,81.04
2019-01-11T09:46:51.627Z,81.23
2019-01-11T09:47:52.444Z,80.75
2019-01-11T09:48:51.818Z,80.46
2019-01-11T09:49:51.626Z,81.04
2019-01-11T09:50:51.634Z,80.94
2019-01-11T09:51:51.619Z,80.75
2019-01-11T09:52:51.775Z,80.84
2019-01-11T09:53:51.677Z,81.23
2019-01-11T09:54:51.705Z,80.56
2019-01-11T09:55:51.677Z,80.94
2019-01-11T09:56:51.906Z,80.75
2019-01-11T09:57:51.639Z,80.94
2019-01-11T09:58:51.698Z,80.94
2019-01-11T09:59:55.134Z,81.04
2019-01-11T10:00:51.722Z,81.70
2019-01-11T10:01:52.443Z,80.84
2019-01-11T10:02:51.647Z,81.41
2019-01-11T10:03:51.773Z,81.51
2019-01-11T10:04:51.675Z,81.32
2019-01-11T10:05:51.659Z,81.04
2019-01-11T10:06:55.141Z,80.65
2019-01-11T10:07:51.755Z,81.04
2019-01-11T10:08:52.660Z,80.94
2019-01-11T10:09:54.038Z,80.84
2019-01-11T10:10:52.714Z,81.32
2019-01-11T10:11:52.673Z,80.75
2019-01-11T10:12:51.958Z,80.56
2019-01-11T10:13:51.692Z,80.84
2019-01-11T10:14:51.862Z,80.46
2019-01-11T10:15:51.714Z,80.27
2019-01-11T10:16:52.617Z,80.56
2019-01-11T10:17:51.765Z,80.56
2019-01-11T10:18:51.710Z,80.84
2019-01-11T10:19:51.958Z,80.75
2019-01-11T10:20:51.747Z,80.37
2019-01-11T10:21:52.526Z,80.46
2019-01-11T10:23:00.159Z,80.46
2019-01-11T10:23:53.694Z,80.56
2019-01-11T10:24:51.926Z,80.46
2019-01-11T10:25:52.727Z,80.56
2019-01-11T10:26:53.122Z,80.75
2019-01-11T10:27:53.092Z,80.65
2019-01-11T10:28:52.045Z,81.13
2019-01-11T10:29:53.078Z,81.23
2019-01-11T10:30:51.938Z,81.04
2019-01-11T10:31:57.062Z,80.08
2019-01-11T10:32:56.087Z,80.94
2019-01-11T10:33:53.640Z,80.65
2019-01-11T10:34:52.951Z,81.51
2019-01-11T10:35:51.853Z,80.75
2019-01-11T10:36:51.766Z,80.84
2019-01-11T10:37:51.807Z,81.04
2019-01-11T10:38:51.756Z,80.84
2019-01-11T10:39:51.754Z,81.13
2019-01-11T10:40:51.814Z,80.94
2019-01-11T10:41:53.589Z,81.04
2019-01-11T10:42:52.500Z,81.32
2019-01-11T10:43:55.596Z,81.13
2019-01-11T10:44:51.785Z,81.04
2019-01-11T10:45:53.132Z,81.13
2019-01-11T10:46:53.103Z,80.84
2019-01-11T10:47:52.101Z,81.51
2019-01-11T10:48:54.644Z,80.84
2019-01-11T10:49:55.157Z,81.70
2019-01-11T10:50:51.918Z,81.70
2019-01-11T10:51:56.153Z,81.79
2019-01-11T10:52:52.433Z,81.51
2019-01-11T10:53:52.157Z,81.51
2019-01-11T10:54:51.848Z,81.51
2019-01-11T10:55:52.570Z,81.79
2019-01-11T10:56:51.859Z,81.32
2019-01-11T10:57:51.818Z,81.51
2019-01-11T10:58:51.826Z,81.51
2019-01-11T10:59:51.834Z,81.79
2019-01-11T11:00:51.876Z,81.60
2019-01-11T11:01:51.863Z,81.79
2019-01-11T11:02:51.830Z,81.79
2019-01-11T11:03:51.988Z,81.51
2019-01-11T11:04:51.847Z,81.88
2019-01-11T11:05:51.874Z,81.79
2019-01-11T11:06:51.873Z,81.93
2019-01-11T11:07:51.997Z,81.84
2019-01-11T11:08:51.836Z,81.60
2019-01-11T11:09:51.861Z,81.79
2019-01-11T11:10:51.864Z,81.60
2019-01-11T11:11:51.905Z,81.74
2019-01-11T11:12:51.869Z,81.65
2019-01-11T11:13:51.896Z,81.26
2019-01-11T11:14:51.884Z,81.93
2019-01-11T11:15:51.888Z,82.12
2019-01-11T11:16:51.877Z,81.60
2019-01-11T11:17:51.961Z,82.08
2019-01-11T11:18:52.667Z,81.88
2019-01-11T11:19:52.065Z,82.27
2019-01-11T11:20:51.923Z,82.31
2019-01-11T11:21:51.908Z,81.74
2019-01-11T11:22:51.891Z,81.70
2019-01-11T11:23:54.028Z,82.12
2019-01-11T11:24:51.904Z,82.78
2019-01-11T11:25:51.905Z,82.31
2019-01-11T11:26:52.051Z,82.88
2019-01-11T11:27:52.031Z,82.59
2019-01-11T11:28:52.248Z,82.36
2019-01-11T11:29:52.719Z,82.21
2019-01-11T11:30:51.944Z,82.03
2019-01-11T11:31:52.765Z,82.12
2019-01-11T11:32:52.093Z,82.03
2019-01-11T11:33:51.948Z,82.21
2019-01-11T11:34:52.002Z,82.12
2019-01-11T11:35:51.983Z,82.31
2019-01-11T11:36:52.011Z,81.93
2019-01-11T11:37:51.995Z,81.93
2019-01-11T11:38:51.959Z,81.74
2019-01-11T11:39:52.011Z,81.65
2019-01-11T11:40:52.050Z,81.74
2019-01-11T11:41:51.963Z,81.74
2019-01-11T11:42:51.992Z,81.74
2019-01-11T11:43:51.990Z,81.93
2019-01-11T11:44:52.060Z,81.84
2019-01-11T11:45:51.988Z,81.93
2019-01-11T11:46:51.968Z,81.65
2019-01-11T11:47:51.971Z,81.36
2019-01-11T11:48:51.991Z,81.84
2019-01-11T11:49:52.000Z,82.03
2019-01-11T11:50:52.004Z,81.65
2019-01-11T11:51:51.982Z,81.65
2019-01-11T11:52:52.000Z,82.50
2019-01-11T11:53:51.988Z,81.93
2019-01-11T11:54:52.049Z,81.93
2019-01-11T11:55:52.047Z,82.31
2019-01-11T11:56:52.012Z,82.78
2019-01-11T11:57:51.995Z,82.50
2019-01-11T11:58:52.018Z,82.12
2019-01-11T11:59:52.013Z,81.84
2019-01-11T12:00:52.066Z,82.12
2019-01-11T12:01:52.515Z,82.21
2019-01-11T12:02:52.029Z,82.12
2019-01-11T12:03:52.027Z,82.69
2019-01-11T12:04:52.101Z,82.50
2019-01-11T12:05:52.087Z,82.97
2019-01-11T12:06:52.040Z,82.50
2019-01-11T12:07:52.059Z,82.88
2019-01-11T12:08:52.047Z,82.78
2019-01-11T12:09:52.145Z,82.31
2019-01-11T12:10:52.080Z,82.50
2019-01-11T12:11:52.116Z,82.78
2019-01-11T12:12:52.115Z,82.50
2019-01-11T12:13:52.048Z,82.59
2019-01-11T12:14:52.057Z,82.78
2019-01-11T12:15:52.126Z,82.40
2019-01-11T12:16:53.031Z,82.03
2019-01-11T12:17:55.879Z,82.40
2019-01-11T12:18:58.559Z,82.40
2019-01-11T12:20:02.061Z,82.12
2019-01-11T12:20:57.061Z,82.40
2019-01-11T12:21:53.602Z,82.40
2019-01-11T12:22:52.245Z,82.03
2019-01-11T12:23:52.334Z,81.93
2019-01-11T12:24:53.033Z,82.50
2019-01-11T12:25:52.606Z,82.69
2019-01-11T12:26:52.119Z,82.69
2019-01-11T12:27:52.154Z,82.50
2019-01-11T12:28:52.264Z,82.69
2019-01-11T12:29:52.152Z,82.50
2019-01-11T12:30:52.657Z,82.69
2019-01-11T12:31:52.209Z,82.78
2019-01-11T12:32:52.462Z,82.35
2019-01-11T12:33:54.058Z,82.82
2019-01-11T12:34:52.186Z,82.82
2019-01-11T12:35:52.160Z,82.64
2019-01-11T12:36:52.206Z,82.45
2019-01-11T12:37:52.289Z,81.87
2019-01-11T12:38:52.153Z,81.97
2019-01-11T12:39:52.153Z,81.78
2019-01-11T12:40:52.187Z,81.78
2019-01-11T12:41:52.515Z,82.26
2019-01-11T12:42:52.163Z,81.97
2019-01-11T12:43:52.186Z,81.78
2019-01-11T12:44:52.174Z,82.26
2019-01-11T12:45:52.209Z,81.97
2019-01-11T12:46:52.158Z,81.78
2019-01-11T12:47:52.201Z,81.68
2019-01-11T12:48:52.208Z,82.07
2019-01-11T12:49:52.221Z,81.68
2019-01-11T12:50:52.193Z,82.07
2019-01-11T12:51:54.040Z,81.97
2019-01-11T12:52:53.164Z,82.07